Wykoff, MN

6:05 AM CDT on July 28, 2014 (GMT -0500)
Preston (KFKA) Elev 1276 ft | 43.68 °N, 92.17 °W | Change Station

Current weather conditions updated 15 minutes ago

Overcast
Overcast
55 °F
Feels Like 55 °F
N
0
Wind Variable Wind from North

Today is forecast to be nearly the same temperature as yesterday.

Today
High -- | Low -- °F
--% Chance of Precip.
Yesterday
High -- | Low -- °F
Precip. -- in
5:53 AM 8:36 PM
New Moon, 2% visible
Pressure 30.17 in
Visibility 10.0 miles
Clouds Overcast 6000 ft
Dew Point 55 °F
Humidity 100%
Rainfall 0.00 in
Snow Depth Not available.
UV 0 out of 12
Pollen 6.70 out of 12
Air Quality Not available.
Flu Activity Not available.
METAR KFKA 281050Z AUTO 00000KT 10SM OVC060 13/13 A3017 RMK AO2 T01270128

More Conditions Fewer Conditions

Pressure 30.17 in
Visibility 10.0 miles
Clouds Overcast 6000 ft
Dew Point 55 °F
Humidity 100%
Rainfall 0.00 in
Snow Depth Not available.
UV 0 out of 12
Pollen 6.70 out of 12
Air Quality Not available.
Flu Activity Not available.
METAR KFKA 281050Z AUTO 00000KT 10SM OVC060 13/13 A3017 RMK AO2 T01270128

More Conditions Fewer Conditions

10-Day Weather Forecast

Almanac

Astronomy

Jul. 28, 2014 Rise Set
Actual Time 5:53 AM CDT 8:36 PM CDT
Civil Twilight 5:20 AM CDT 9:09 PM CDT
Nautical Twilight 4:38 AM CDT 9:51 PM CDT
Astronomical Twilight 3:50 AM CDT 10:39 PM CDT
Moon 7:40 AM CDT 9:12 PM CDT
Length of Visible Light 15h 49m
Length of Day
14h 42m
Tomorrow will be 2m 10s shorter.
New Moon, 2% of the Moon is Illuminated
Today
New Moon
Aug 3
First Quarter
Aug 10
Full
Aug 17
Last Quarter
Aug 25
New

Today's Extremes

State Highs State Lows

Community

WunderPhotos

Upload Photos

1,738,296 photos uploaded!

Nearby

Snow Depth

Station Depth Elevation
No new snow has been reported.

Earthquake Activity

City Distance Mag. Time & Date
No recent earthquake activity has been reported nearby.
Minimum magnitude displayed is 2.5.

Coastal Water Temperatures

Place Temperature
No Stations Reporting

Nearby Weather Stations

Station Location Temp. Dew Point Humidity Wind Precip. Elev Updated Type
Stewartville, MN 58.0 °F 55 °F 90% WNW  at  0.0 mph 0.00 in / hr 1253 ft 5:53 AM CDT Normal
Steve's Weather Station, Grand Meadow, MN 56.8 °F 53 °F 88% NNW  at  0.0 mph 0.00 in / hr 1296 ft 6:02 AM CDT Normal
Downtown Weather, Rochester, MN 61.6 °F 56 °F 81% North  at  0.0 mph 0.00 in / hr 1007 ft 6:05 AM CDT Rapid Fire
Quarry Hill Nature Center, Rochester, MN 57.1 °F 55 °F 93% NNW  at  1.0 mph 0.00 in / hr 1020 ft 6:05 AM CDT Rapid Fire
Cairnbrae/Salem Rd, Rochester, MN 57.4 °F 57 °F 99% WSW  at  0.0 mph 0.00 in / hr 1056 ft 6:05 AM CDT Rapid Fire
APRSWXNET - Parkwood Hills, Rochester, MN 58.4 °F 56 °F 90% NNW  at  1.0 mph 0.00 in / hr 1220 ft 6:02 AM CDT Normal

Show More Stations Show Fewer Stations